• Join FlightAware (Why Join?)
  • Login
  • US Flag 
09:01AM EDT


 

Airport Tracker/Info


-or-


 

Live Flight TrackerFlight Track Log ✈ N3801T ✈ 04-May-2013 ✈ KANE - KPNM

Flight Track Log - Related Links

Times and Time Zones

All times are in EDT time to prevent confusion due to time zone crossing. See the N3801T flight status page for this flight to view local times or setup timezone preferences in your user account.

Time Position Orientation Groundspeed Altitude Reporting Facility
EDT Latitude Longitude Course Direction KTS MPH feet Rate Location/Type
03:33PM 45.0167 -93.0500 340° North 115 132 3,100  Level Minneapolis TRACON
03:34PM 45.0333 -93.0500 360° North 116 133 3,600 480 Climbing Minneapolis TRACON
03:35PM 45.0517 -93.0603 338° Northwest 114 131 3,800 180 Climbing Minneapolis Center
03:36PM 45.0675 -93.1028 298° West 132 152 3,900  Climbing Minneapolis Center
03:37PM 45.0964 -93.1567 307° West 144 166 3,900  Level Minneapolis Center
03:38PM 45.1081 -93.2106 287° West 146 168 3,900  Level Minneapolis Center
03:39PM 45.2305 -93.4176 340° North  Level FlightAware Approximate
03:39PM 45.1197 -93.2650 287° West 145 167 3,900  Level Minneapolis Center
03:40PM 45.1347 -93.3172 292° West 145 167 3,900  Level Minneapolis Center
03:41PM 45.1525 -93.3675 297° West 144 166 3,900 -60 Level Minneapolis Center
03:42PM 45.1911 -93.3914 336° Northwest 150 173 3,800  Descending Minneapolis Center
03:43PM 45.2250 -93.4181 331° Northwest 141 162 3,900  Climbing Minneapolis Center
03:44PM 45.2731 -93.4286 351° North 144 166 3,800 -60 Descending Minneapolis Center
03:45PM 45.3106 -93.4425 345° North 142 163 3,800  Level Minneapolis Center
03:46PM 45.3458 -93.4683 333° Northwest 142 163 3,900  Climbing Minneapolis Center
03:47PM 45.3819 -93.4917 336° Northwest 142 163 3,900  Level Minneapolis Center
03:48PM 45.4189 -93.5169 334° Northwest 147 169 3,900  Level Minneapolis Center
03:49PM 45.4569 -93.5389 338° Northwest 149 171 3,900  Level Minneapolis Center
03:50PM 45.4931 -93.5672 331° Northwest 149 171 3,900 -120 Level Minneapolis Center
03:51PM 45.5381 -93.5972 335° Northwest 151 174 3,700 -360 Descending Minneapolis Center
03:52PM 45.5744 -93.6103 346° North 142 163 3,200 -360 Descending Minneapolis Center
03:53PM 45.6028 -93.6328 331° Northwest 122 140 3,000 -240 Descending Minneapolis Center
03:54PM 45.6161 -93.6750 294° West 114 131 2,800 -60 Descending Minneapolis Center
03:55PM 45.6350 -93.6836 342° North 114 131 2,900 -60 Climbing Minneapolis Center
03:56PM 45.6256 -93.6500 112° Southeast 103 119 2,700 -300 Descending Minneapolis Center
03:57PM 45.5942 -93.6353 162° South 105 121 2,300 -420 Descending Minneapolis Center